NCAR-RAP Real-Time Weather Data

Output produced by METARs form (23 June 2018  19:38 UTC)
found at http://weather.rap.ucar.edu/surface/
 
RJSS 231200Z 33003KT 300V010 5000 BR FEW050 BKN150 20/20 Q1002
RJSS 231100Z 12006KT 5000 BR FEW040 BKN150 20/20 Q1002
RJSS 231016Z 35005KT 5000 BR FEW005 SCT040 BKN150 20/20 Q1002 RMK 1ST005 4CU040 7AC150 A2960
RJSS 231000Z 34003KT 290V020 3500 BR FEW003 SCT005 BKN130 20/20 Q1002
RJSS 230900Z 10003KT 050V140 3500 BR FEW003 BKN005 20/20 Q1002
RJSS 230838Z 13003KT 080V160 3000 BR FEW003 BKN005 20/20 Q1002 RMK 1ST003 7ST005 A2961 MOD TURB OBS AT 0819Z 10NM N OF SDE BTN 18000FT AND 16000FT IN DES B735
RJSS 230811Z 15006KT 2500 BR FEW001 BKN004 20/20 Q1003 RMK 1ST001 7ST004 A2962
RJSS 230800Z 14006KT 2000 BCFG BR FEW001 BKN003 20/20 Q1003
RJSS 230723Z 15009KT 1800 BCFG BR FEW001 BKN002 20/20 Q1003 RMK 2ST001 7ST002 A2964
RJSS 230700Z 13009KT 2000 BCFG BR FEW001 BKN003 20/20 Q1003
RJSS 230639Z 12005KT 2500 BR FEW002 BKN003 20/20 Q1003 RMK 1ST002 7ST003 A2964
RJSS 230613Z 13007KT 9000 FEW004 BKN006 BKN/// 21/21 Q1003 RMK 1ST004 6ST006 A2964
RJSS 230600Z 13008KT 9999 FEW007 BKN/// 22/22 Q1003
RJSS 230500Z 13005KT 080V190 9999 FEW060 BKN/// 22/21 Q1004
RJSS 230400Z 11003KT 070V160 9999 FEW060 BKN/// 21/17 Q1005
RJSS 230300Z 13012KT 9999 FEW060 BKN/// 21/18 Q1005
RJSS 230200Z 14007KT 9999 FEW060 BKN/// 23/14 Q1006
RJSS 230100Z 20007KT 180V240 9999 FEW060 BKN/// 25/13 Q1007
RJSS 230000Z 23007KT 180V260 9999 FEW060 BKN/// 23/13 Q1008
RJSS 222300Z 22005KT 180V270 9999 FEW060 BKN/// 21/12 Q1008
RJSS 222200Z 21006KT 9999 FEW060 BKN/// 19/12 Q1009
RJSS 222100Z 30003KT 9999 FEW050 BKN/// 17/14 Q1009
RJSS 222030Z 35003KT 9999 FEW050 BKN/// 16/15 Q1008 RMK 1SC050 A2979
RJSS 221200Z 28009KT CAVOK 22/06 Q1008
RJSS 221100Z 22006KT 9999 FEW040 23/06 Q1007
RJSS 221000Z 24005KT 9999 FEW040 24/07 Q1007
RJSS 220900Z 28012KT 9999 FEW050 26/06 Q1006
RJSS 220800Z 28014KT 240V300 9999 FEW050 SCT090 27/06 Q1006
RJSS 220700Z 27013KT 9999 FEW070 SCT090 27/07 Q1006
RJSS 220600Z 28013KT 9999 FEW070 SCT090 28/08 Q1005
RJSS 220500Z 29013KT 270V340 9999 FEW050 SCT080 28/08 Q1005
RJSS 220400Z 29015KT 9999 FEW050 SCT070 28/07 Q1005
RJSS 220300Z 29011KT 230V320 9999 FEW050 SCT070 28/09 Q1006
RJSS 220200Z 29007KT 250V330 9999 SCT060 26/09 Q1006
RJSS 220100Z 29012KT 250V330 9999 SCT060 26/09 Q1006
RJSS 220000Z 30009KT 260V330 9999 FEW020 25/10 Q1006
RJSS 212300Z VRB02KT 9999 FEW020 23/09 Q1006
RJSS 212200Z 00000KT 9999 FEW020 SCT/// 22/10 Q1007
RJSS 212100Z VRB02KT 9999 FEW020 21/11 Q1006
RJSS 212030Z 27003KT 210V320 9999 FEW020 19/12 Q1006 RMK 1CU020 A2972
RJSS 211200Z 25009KT 9999 FEW020 SCT060 BKN/// 22/15 Q1003
RJSS 211100Z VRB02KT 9999 FEW020 BKN/// 21/21 Q1002
RJSS 211000Z VRB02KT 8000 FEW020 BKN/// 21/21 Q1002
RJSS 210900Z 17005KT 9999 FEW020 SCT180 BKN/// 21/21 Q1001
RJSS 210800Z 16012KT 9999 FEW020 BKN/// 21/21 Q1000